Cairns Airport Weather forecast (YBCS)

METAR

TTF METAR YBCS 230130Z 09007KT 060V140 9999 FEW025 29/21 Q1010 RMK RF00.0/000.0 NOSIG

TAF

TAF YBCS 222300Z 2300/2324 15008KT 9999 -SHRA SCT022 BKN035 FM230100 08010KT 9999 FEW025 SCT045 FM230800 13010KT 9999 SCT022 BKN035 INTER 2308/2318 3000 SHRA FEW005 BKN018 RMK T 28 29 28 25 Q 1010 1008 1008 1009

QNH 

1010

Temperature & Dew Point

25° DP21